createdAt,value
2023-05-05T00:01:42.424Z,13.05
2023-05-05T00:06:43.897Z,12.73
2023-05-05T00:11:45.381Z,12.38
2023-05-05T00:16:47.287Z,13.43
2023-05-05T00:21:48.736Z,14.70
2023-05-05T00:26:51.115Z,14.52
2023-05-05T00:31:52.614Z,13.85
2023-05-05T00:36:54.047Z,14.18
2023-05-05T00:41:55.467Z,14.15
2023-05-05T00:46:56.951Z,14.05
2023-05-05T00:51:59.053Z,14.18
2023-05-05T00:57:02.184Z,14.13
2023-05-05T01:02:03.749Z,13.60
2023-05-05T01:07:22.214Z,14.38
2023-05-05T01:13:01.860Z,14.23
2023-05-05T01:18:25.119Z,14.48
2023-05-05T01:24:04.974Z,15.38
2023-05-05T01:29:38.481Z,14.73
2023-05-05T01:34:56.130Z,15.60
2023-05-05T01:40:06.202Z,15.02
2023-05-05T01:45:11.334Z,14.20
2023-05-05T01:50:15.985Z,14.02
2023-05-05T01:55:19.618Z,13.55
2023-05-05T02:00:22.648Z,13.07
2023-05-05T02:05:26.593Z,13.25
2023-05-05T02:10:29.206Z,12.70
2023-05-05T02:15:31.919Z,12.02
2023-05-05T02:20:33.907Z,12.40
2023-05-05T02:25:41.968Z,12.98
2023-05-05T02:30:43.968Z,13.65
2023-05-05T02:35:47.047Z,11.95
2023-05-05T02:40:51.138Z,13.00
2023-05-05T02:45:52.596Z,12.85
2023-05-05T02:50:54.020Z,12.63
2023-05-05T02:56:06.077Z,12.68
2023-05-05T03:01:16.958Z,12.65
2023-05-05T03:06:21.355Z,12.23
2023-05-05T03:11:29.121Z,12.48
2023-05-05T03:16:33.528Z,12.57
2023-05-05T03:21:35.368Z,12.05
2023-05-05T03:26:36.775Z,12.27
2023-05-05T03:31:38.332Z,12.98
2023-05-05T03:36:40.214Z,12.73
2023-05-05T03:41:41.638Z,12.45
2023-05-05T03:46:43.138Z,12.48
2023-05-05T03:51:44.556Z,12.82
2023-05-05T03:56:45.955Z,12.27
2023-05-05T04:01:48.966Z,11.75
2023-05-05T04:06:50.369Z,11.40
2023-05-05T04:11:52.045Z,12.18
2023-05-05T04:16:53.513Z,12.38
2023-05-05T04:21:54.965Z,12.02
2023-05-05T04:26:56.427Z,11.68
2023-05-05T04:31:57.868Z,12.43
2023-05-05T04:36:59.329Z,12.07
2023-05-05T04:42:00.738Z,12.45
2023-05-05T04:47:02.466Z,13.10
2023-05-05T04:52:03.938Z,13.38
2023-05-05T04:57:05.416Z,13.40
2023-05-05T05:02:06.945Z,13.18
2023-05-05T05:07:09.273Z,13.25
2023-05-05T05:12:10.786Z,12.30
2023-05-05T05:17:12.198Z,13.95
2023-05-05T05:22:13.654Z,13.60
2023-05-05T05:27:15.089Z,14.10
2023-05-05T05:32:16.741Z,14.68
2023-05-05T05:37:18.201Z,14.15
2023-05-05T05:42:19.611Z,16.33
2023-05-05T05:47:21.128Z,14.82
2023-05-05T05:52:22.544Z,13.65
2023-05-05T05:57:24.593Z,13.63
2023-05-05T06:02:27.226Z,13.68
2023-05-05T06:07:28.747Z,13.48
2023-05-05T06:12:30.205Z,13.20
2023-05-05T06:17:31.661Z,13.48
2023-05-05T06:22:33.066Z,14.00
2023-05-05T06:27:34.680Z,14.38
2023-05-05T06:32:36.191Z,14.13
2023-05-05T06:37:37.803Z,13.48
2023-05-05T06:42:39.226Z,13.88
2023-05-05T06:47:42.107Z,12.88
2023-05-05T06:52:43.545Z,13.18
2023-05-05T06:57:45.324Z,12.52
2023-05-05T07:02:47.608Z,12.10
2023-05-05T07:07:56.440Z,12.23
2023-05-05T07:12:58.142Z,11.15
2023-05-05T07:17:59.689Z,8.68
2023-05-05T07:23:01.341Z,9.90
2023-05-05T07:28:03.281Z,10.88
2023-05-05T07:33:04.796Z,10.27
2023-05-05T07:38:06.928Z,9.68
2023-05-05T07:43:09.721Z,9.27
2023-05-05T07:48:11.460Z,9.52
2023-05-05T07:53:14.979Z,8.75
2023-05-05T07:58:17.057Z,8.52
2023-05-05T08:03:20.650Z,7.03
2023-05-05T08:08:26.880Z,8.32
2023-05-05T08:13:30.186Z,8.90
2023-05-05T08:18:31.701Z,6.80
2023-05-05T08:23:34.710Z,8.25
2023-05-05T08:28:36.801Z,7.13
2023-05-05T08:33:38.253Z,6.82
2023-05-05T08:38:39.685Z,5.60
2023-05-05T08:43:43.781Z,5.60
2023-05-05T08:48:46.065Z,6.18
2023-05-05T08:54:00.908Z,6.60
2023-05-05T08:59:02.556Z,5.20
2023-05-05T09:04:04.722Z,5.03
2023-05-05T09:09:06.660Z,5.40
2023-05-05T09:14:08.104Z,5.15
2023-05-05T09:19:09.589Z,3.97
2023-05-05T09:24:12.587Z,4.28
2023-05-05T09:29:21.265Z,3.40
2023-05-05T09:39:24.429Z,4.47
2023-05-05T09:44:37.273Z,3.75
2023-05-05T09:49:39.199Z,3.97
2023-05-05T09:54:41.303Z,4.13
2023-05-05T09:59:54.921Z,3.70
2023-05-05T10:05:12.730Z,4.22
2023-05-05T10:10:16.505Z,4.57
2023-05-05T10:15:18.559Z,3.90
2023-05-05T10:20:21.098Z,4.72
2023-05-05T10:25:32.908Z,4.60
2023-05-05T10:30:41.533Z,4.50
2023-05-05T10:40:48.153Z,4.13
2023-05-05T10:45:50.130Z,3.60
2023-05-05T10:50:56.698Z,4.22
2023-05-05T10:56:25.298Z,4.18
2023-05-05T11:01:32.732Z,4.45
2023-05-05T11:06:34.221Z,4.00
2023-05-05T11:12:04.376Z,3.92
2023-05-05T11:17:34.205Z,3.67
2023-05-05T11:23:05.216Z,3.78
2023-05-05T11:28:13.604Z,4.38
2023-05-05T11:33:31.250Z,3.70
2023-05-05T11:38:46.932Z,3.50
2023-05-05T11:43:48.424Z,3.25
2023-05-05T11:48:53.786Z,3.60
2023-05-05T11:53:56.013Z,3.50
2023-05-05T11:59:19.078Z,3.38
2023-05-05T12:04:20.634Z,3.58
2023-05-05T12:09:23.875Z,2.95
2023-05-05T12:14:25.954Z,2.90
2023-05-05T12:19:33.152Z,3.10
2023-05-05T12:24:34.873Z,2.83
2023-05-05T12:29:36.917Z,3.03
2023-05-05T12:34:38.582Z,2.95
2023-05-05T12:39:40.004Z,3.13
2023-05-05T12:44:44.012Z,3.10
2023-05-05T12:49:46.229Z,3.95
2023-05-05T12:54:55.168Z,3.65
2023-05-05T12:59:57.935Z,4.00
2023-05-05T13:04:59.408Z,5.32
2023-05-05T13:10:10.880Z,3.15
2023-05-05T13:15:12.973Z,3.08
2023-05-05T13:20:14.487Z,3.22
2023-05-05T13:25:15.991Z,3.30
2023-05-05T13:30:17.433Z,3.45
2023-05-05T13:35:18.862Z,3.35
2023-05-05T13:40:20.299Z,2.72
2023-05-05T13:45:21.744Z,3.55
2023-05-05T13:50:24.039Z,2.95
2023-05-05T13:55:25.589Z,2.72
2023-05-05T14:00:27.809Z,3.08
2023-05-05T14:05:29.237Z,3.33
2023-05-05T14:10:31.074Z,3.30
2023-05-05T14:15:32.899Z,2.83
2023-05-05T14:20:34.487Z,2.80
2023-05-05T14:25:35.974Z,2.80
2023-05-05T14:30:37.415Z,3.00
2023-05-05T14:35:38.874Z,2.63
2023-05-05T14:40:40.622Z,3.15
2023-05-05T14:45:42.026Z,2.95
2023-05-05T14:50:46.268Z,3.20
2023-05-05T14:55:47.762Z,3.03
2023-05-05T15:00:49.214Z,2.97
2023-05-05T15:05:51.102Z,2.80
2023-05-05T15:10:52.529Z,2.90
2023-05-05T15:15:53.985Z,2.70
2023-05-05T15:20:55.425Z,2.88
2023-05-05T15:25:56.932Z,2.97
2023-05-05T15:31:01.820Z,3.08
2023-05-05T15:36:03.397Z,2.83
2023-05-05T15:41:07.021Z,2.92
2023-05-05T15:46:08.431Z,3.05
2023-05-05T15:51:11.843Z,2.45
2023-05-05T15:56:13.266Z,2.78
2023-05-05T16:01:14.707Z,2.60
2023-05-05T16:06:16.213Z,2.80
2023-05-05T16:11:17.716Z,3.10
2023-05-05T16:16:19.195Z,2.80
2023-05-05T16:21:20.656Z,2.72
2023-05-05T16:26:22.100Z,2.72
2023-05-05T16:31:23.524Z,3.28
2023-05-05T16:36:25.014Z,4.00
2023-05-05T16:41:26.861Z,3.08
2023-05-05T16:46:28.408Z,2.70
2023-05-05T16:51:29.989Z,2.70
2023-05-05T16:56:31.424Z,2.83
2023-05-05T17:01:34.720Z,2.80
2023-05-05T17:06:36.441Z,2.72
2023-05-05T17:11:37.936Z,3.00
2023-05-05T17:16:39.431Z,3.10
2023-05-05T17:21:43.131Z,3.10
2023-05-05T17:26:44.601Z,2.92
2023-05-05T17:31:46.788Z,3.30
2023-05-05T17:36:48.240Z,3.15
2023-05-05T17:41:49.707Z,3.10
2023-05-05T17:46:51.256Z,2.88
2023-05-05T17:51:52.708Z,3.22
2023-05-05T17:56:54.197Z,3.25
2023-05-05T18:01:55.700Z,3.47
2023-05-05T18:06:57.469Z,3.08
2023-05-05T18:11:58.903Z,3.28
2023-05-05T18:17:00.313Z,2.92
2023-05-05T18:22:01.740Z,3.85
2023-05-05T18:27:05.953Z,4.28
2023-05-05T18:32:07.465Z,5.10
2023-05-05T18:37:09.017Z,5.45
2023-05-05T18:42:10.554Z,5.90
2023-05-05T18:47:12.216Z,5.75
2023-05-05T18:52:13.706Z,5.45
2023-05-05T18:57:15.131Z,5.68
2023-05-05T19:02:17.825Z,6.25
2023-05-05T19:07:33.925Z,5.68
2023-05-05T19:12:36.770Z,6.38
2023-05-05T19:17:38.281Z,6.35
2023-05-05T19:22:39.824Z,6.57
2023-05-05T19:27:41.392Z,5.55
2023-05-05T19:32:42.834Z,6.28
2023-05-05T19:37:44.257Z,5.90
2023-05-05T19:42:45.668Z,4.90
2023-05-05T19:47:47.127Z,5.38
2023-05-05T19:52:48.559Z,5.25
2023-05-05T19:57:50.007Z,5.53
2023-05-05T20:02:51.663Z,5.15
2023-05-05T20:07:53.179Z,5.90
2023-05-05T20:12:54.618Z,5.28
2023-05-05T20:17:56.097Z,5.05
2023-05-05T20:22:57.546Z,5.50
2023-05-05T20:27:59.296Z,5.38
2023-05-05T20:33:00.810Z,5.50
2023-05-05T20:38:04.664Z,5.30
2023-05-05T20:43:06.115Z,5.78
2023-05-05T20:48:09.904Z,5.78
2023-05-05T20:53:13.837Z,5.97
2023-05-05T20:58:15.269Z,5.20
2023-05-05T21:03:16.873Z,6.20
2023-05-05T21:08:18.365Z,6.00
2023-05-05T21:13:19.836Z,6.20
2023-05-05T21:18:21.364Z,6.05
2023-05-05T21:23:22.805Z,6.40
2023-05-05T21:28:24.292Z,6.07
2023-05-05T21:33:25.744Z,6.03
2023-05-05T21:38:27.257Z,6.07
2023-05-05T21:43:28.811Z,5.82
2023-05-05T21:48:31.321Z,6.72
2023-05-05T21:53:32.803Z,6.25
2023-05-05T21:58:34.390Z,6.53
2023-05-05T22:03:36.027Z,5.70
2023-05-05T22:08:37.506Z,6.47
2023-05-05T22:13:39.255Z,6.13
2023-05-05T22:18:40.710Z,5.95
2023-05-05T22:23:42.157Z,6.35
2023-05-05T22:28:43.589Z,6.63
2023-05-05T22:33:45.020Z,6.07
2023-05-05T22:38:46.528Z,6.00
2023-05-05T22:43:49.190Z,6.05
2023-05-05T22:48:52.320Z,6.53
2023-05-05T22:53:53.729Z,5.93
2023-05-05T22:58:55.766Z,5.88
2023-05-05T23:03:57.336Z,5.50
2023-05-05T23:08:58.769Z,5.93
2023-05-05T23:14:00.281Z,6.07
2023-05-05T23:19:01.781Z,5.20
2023-05-05T23:24:03.356Z,5.90
2023-05-05T23:29:05.684Z,5.50
2023-05-05T23:34:07.115Z,5.85
2023-05-05T23:39:08.772Z,5.50
2023-05-05T23:44:10.337Z,6.53
2023-05-05T23:49:11.756Z,5.70
2023-05-05T23:54:13.173Z,5.65
2023-05-05T23:59:14.650Z,6.30
